Terminal Aerodrome Forecast
Issued by NWS

Home | Current Version | Previous Version | Text Only | Print | Product List | Glossary On
Versions: 1 2 3 4 5 6 7 8 9 10 11 12 13 14 15 16 17 18 19 20
044
FTUS43 KAPX 192327
TAFMBL
TAF
KMBL 192327Z 2000/2024 06007KT 3SM -RA BR OVC025
     FM200200 08006KT 2SM -RA BR OVC015
     FM200600 11004KT 1 1/2SM RA BR OVC008
     FM201000 VRB03KT 1/4SM -RA FG OVC003
     FM201400 18004KT 1/4SM -RA FG OVC003
     FM201600 18005KT 3/4SM -RA BR OVC008 WS020/22035KT
     FM202200 22006KT 2SM -RA BR OVC008 WS020/22035KT
     FM202300 25006KT 3SM -RA BR OVC008=

USA.gov is the U.S. government's official web portal to all federal, state and local government web resources and services.